Strona główna
METAR-TAF:

METAR-TAF

Lotnisko :

Port lotniczy Niamey

Niamey, Niger

Szerokość geograficzna: 13-29N, Długość geograficzna: 002-10E, wysokość: 223 m

Aktualna obserwacja pogody

Raport powstał 49 minut temu, godzina 04:00 UTC
Wiatr 1 kt od południe
Temperatura 26°C
Wilgotność 100%
Ciśnienie 1008 hPa
Widzialność 10 km lub więcej
Brak chmur poniżej 1500 m i brak chmur cumulonimbus

METAR: DRRN 200400Z 18001KT CAVOK 26/26 Q1008 NOSIG

czas: 05:49 (04:49 UTC)

Prognoza

Raport powstał 5 godziny i 49 minut temu, godzina 23:00 UTC
Prognoza ważna od 20 godzina 00 UTC do 21 godzina 06 UTC
Wiatr 6 kt od południowo-południowy zachód
Widzialność: 8000 m
Prawdopodobieństwo 30% :
Przejściowo
od 20 godzina 15 UTC do 20 godzina 20 UTC
Mało chmury na wysokości 4000 ft, Cumulonimbus.
burza

TAF: DRRN 192300Z 2000/2106 20006KT 8000 NSC PROB30 TEMPO 2015/2020 TS FEW040CB

Obserwacja i prognoza pogody dla ponad 4000 lotnisk (raport METAR i TAF).

Dostępne stacje oznaczono żółtymi i czerwonymi punktami na mapie.

Najedź kursorem aby zobaczyć nazwę stacji.

Kliknij aby zobaczyć obserwacje i prognozy pogody.

Aby zmienić mapę: kliknij na zielony przycisk z czarnym krzyżykiem, aby powiększyć; na zielony przycisk z myślnikiem, aby pomniejszyć; na zielone strzałki, aby przejść do map sąsiednich.


METAR-TAF: